> <
  • 1
  • 2

Novidades

  • Temos o prazer de lhe apresentar… Ler mais +
  • Está disponível a secção Multimédia no… Ler mais +
  • 1
[source: ADDS]
METAR
LPPR 180630Z 08008KT CAVOK 17/10 Q1000 =
TAF LPPR 180500Z 1806/1906 09010KT CAVOK BECMG 1812/1815 9999 BKN035 BECMG 1818/1820 VRB03KT
TAF
TAF LPPR 180500Z 1806/1906 09010KT CAVOK BECMG 1812/1815 9999 BKN035 BECMG 1818/1820 VRB03KT =

contactos